Time;durP1;ratioP1;P1;durP2;ratioP2;P2;SDS_P1;SDS_P2;PMS_P1;PMS_P2;Temp;Humidity;BMP_temperature;BMP_pressure;BME280_temperature;BME280_humidity;BME280_pressure;Samples;Min_cycle;Max_cycle;Signal;HPM_P1;HPM_P2
2023/12/15 00:00:35;;;;;;;8.70;2.97;;;6.20;99.90;;;;;;5049484;28;20489;-82
2023/12/15 00:03:02;;;;;;;6.00;2.67;;;6.20;99.90;;;;;;5063618;28;20545;-82
2023/12/15 00:05:27;;;;;;;6.55;2.80;;;6.20;99.90;;;;;;5050946;28;20501;-82
2023/12/15 00:07:53;;;;;;;7.03;3.47;;;6.20;99.90;;;;;;5063134;28;20037;-82
2023/12/15 00:10:19;;;;;;;5.57;2.63;;;6.20;99.90;;;;;;5050222;28;20043;-82
2023/12/15 00:12:44;;;;;;;6.40;2.67;;;6.20;99.90;;;;;;5046008;28;20035;-82
2023/12/15 00:15:10;;;;;;;8.40;2.70;;;6.20;99.90;;;;;;5050050;28;20470;-82
2023/12/15 00:17:36;;;;;;;7.50;2.53;;;6.20;99.90;;;;;;5065523;28;20050;-82
2023/12/15 00:20:03;;;;;;;6.70;2.40;;;6.20;99.90;;;;;;5069606;28;20036;-82
2023/12/15 00:22:29;;;;;;;8.80;3.13;;;6.20;99.90;;;;;;5050658;28;20452;-82
2023/12/15 00:24:54;;;;;;;9.05;3.63;;;6.20;99.90;;;;;;5063631;28;20036;-82
2023/12/15 00:27:20;;;;;;;5.63;2.45;;;6.20;99.90;;;;;;5048656;28;20458;-82
2023/12/15 00:29:46;;;;;;;6.20;2.80;;;6.20;99.90;;;;;;5062604;28;20128;-82
2023/12/15 00:32:12;;;;;;;4.55;2.45;;;6.20;99.90;;;;;;5043087;28;20239;-82
2023/12/15 00:34:37;;;;;;;6.82;3.08;;;6.30;99.90;;;;;;5060036;28;20037;-82
2023/12/15 00:37:03;;;;;;;7.03;3.28;;;6.30;99.90;;;;;;5064953;28;20032;-82
2023/12/15 00:39:30;;;;;;;8.60;2.70;;;6.30;99.90;;;;;;5053908;28;20037;-82
2023/12/15 00:41:56;;;;;;;10.13;3.22;;;6.30;99.90;;;;;;5069130;28;20143;-82
2023/12/15 00:44:21;;;;;;;6.90;2.95;;;6.30;99.90;;;;;;5034240;28;20132;-82
2023/12/15 00:46:47;;;;;;;8.57;2.95;;;6.30;99.90;;;;;;5065604;28;20047;-82
2023/12/15 00:49:13;;;;;;;4.95;2.78;;;6.30;99.90;;;;;;5053644;28;20033;-82
2023/12/15 00:51:38;;;;;;;7.65;2.85;;;6.30;99.90;;;;;;5068281;28;20033;-82
2023/12/15 00:54:04;;;;;;;6.90;2.85;;;6.30;99.90;;;;;;5064112;28;20567;-82
2023/12/15 00:56:30;;;;;;;5.95;3.10;;;6.40;99.90;;;;;;5063727;28;20051;-82
2023/12/15 00:58:55;;;;;;;6.15;2.90;;;6.40;99.90;;;;;;5065272;28;20071;-82
2023/12/15 01:01:22;;;;;;;7.68;2.85;;;6.40;99.90;;;;;;5062064;28;20481;-82
2023/12/15 01:03:48;;;;;;;8.02;2.95;;;6.40;99.90;;;;;;5062537;28;20117;-82
2023/12/15 01:06:13;;;;;;;6.78;2.80;;;6.40;99.90;;;;;;5048671;28;20498;-82
2023/12/15 01:08:39;;;;;;;10.32;3.95;;;6.50;99.90;;;;;;5065711;28;20054;-82
2023/12/15 01:11:05;;;;;;;9.10;2.95;;;6.50;99.90;;;;;;5045347;28;20037;-82
2023/12/15 01:13:31;;;;;;;8.45;3.40;;;6.50;99.90;;;;;;5066080;28;20121;-82
2023/12/15 01:15:56;;;;;;;8.32;3.20;;;6.50;99.90;;;;;;5044792;28;20037;-82
2023/12/15 01:18:22;;;;;;;5.70;3.13;;;6.50;99.90;;;;;;5049333;28;20053;-82
2023/12/15 01:20:48;;;;;;;6.10;3.05;;;6.50;99.90;;;;;;5042973;28;20036;-82
2023/12/15 01:23:13;;;;;;;9.27;3.80;;;6.50;99.90;;;;;;5065217;28;20255;-82
2023/12/15 01:25:39;;;;;;;12.43;4.40;;;6.60;99.90;;;;;;5064571;28;20037;-82
2023/12/15 01:28:05;;;;;;;7.30;2.95;;;6.60;99.90;;;;;;5062443;28;20036;-82
2023/12/15 01:30:30;;;;;;;7.90;2.67;;;6.60;99.90;;;;;;5042135;28;20033;-82
2023/12/15 01:32:56;;;;;;;10.20;3.47;;;6.60;99.90;;;;;;5046369;28;20398;-82
2023/12/15 01:35:22;;;;;;;13.00;3.55;;;6.60;99.90;;;;;;5066542;28;20090;-82
2023/12/15 01:37:47;;;;;;;9.23;4.13;;;6.60;99.90;;;;;;5063898;28;20414;-82
2023/12/15 01:40:13;;;;;;;7.85;3.03;;;6.60;99.90;;;;;;5052263;28;20047;-82
2023/12/15 01:42:39;;;;;;;9.77;3.92;;;6.60;99.90;;;;;;5051350;28;20048;-82
2023/12/15 01:45:05;;;;;;;8.90;4.03;;;6.60;99.90;;;;;;5068576;28;20067;-82
2023/12/15 01:47:31;;;;;;;8.25;3.58;;;6.60;99.90;;;;;;5066664;28;20063;-82
2023/12/15 01:49:57;;;;;;;6.95;3.60;;;6.70;99.90;;;;;;5069310;28;20060;-82
2023/12/15 01:52:23;;;;;;;10.20;3.53;;;6.70;99.90;;;;;;5063415;28;20036;-82
2023/12/15 01:54:49;;;;;;;6.32;2.67;;;6.70;99.90;;;;;;5045142;28;20032;-82
2023/12/15 01:57:15;;;;;;;11.90;4.57;;;6.70;99.90;;;;;;5059593;28;20574;-82
2023/12/15 01:59:45;;;;;;;6.85;3.33;;;6.70;99.90;;;;;;5046358;28;20762;-82
2023/12/15 02:02:11;;;;;;;12.23;3.53;;;6.70;99.90;;;;;;5056859;28;20036;-82
2023/12/15 02:04:39;;;;;;;9.73;5.03;;;6.70;99.90;;;;;;5067150;28;20603;-82
2023/12/15 02:07:04;;;;;;;6.63;2.65;;;6.70;99.90;;;;;;5045997;28;20040;-82
2023/12/15 02:09:30;;;;;;;7.57;4.22;;;6.70;99.90;;;;;;5045965;28;20372;-82
2023/12/15 02:11:56;;;;;;;11.95;5.03;;;6.70;99.90;;;;;;5041778;28;20166;-82
2023/12/15 02:14:22;;;;;;;16.77;4.70;;;6.80;99.90;;;;;;5060508;28;20037;-82
2023/12/15 02:16:47;;;;;;;11.05;4.80;;;6.80;99.90;;;;;;5047632;28;20041;-82
2023/12/15 02:19:13;;;;;;;10.18;4.05;;;6.80;99.90;;;;;;5063113;28;20048;-82
2023/12/15 02:21:39;;;;;;;10.38;3.65;;;6.80;99.90;;;;;;5062451;28;20470;-82
2023/12/15 02:24:05;;;;;;;11.43;3.97;;;6.80;99.90;;;;;;5044119;28;20113;-82
2023/12/15 02:26:30;;;;;;;10.50;4.22;;;6.80;99.90;;;;;;5058298;28;20174;-82
2023/12/15 02:28:56;;;;;;;7.57;3.45;;;6.80;99.90;;;;;;5043677;28;20040;-81
2023/12/15 02:31:24;;;;;;;15.45;4.45;;;6.80;99.90;;;;;;5058755;28;20036;-82
2023/12/15 02:33:52;;;;;;;10.73;3.63;;;6.80;99.90;;;;;;5045004;28;20040;-82
2023/12/15 02:36:22;;;;;;;11.65;4.55;;;6.90;99.90;;;;;;5048349;28;20047;-82
2023/12/15 02:38:48;;;;;;;7.22;3.25;;;6.90;99.90;;;;;;5073110;28;20036;-82
2023/12/15 02:41:14;;;;;;;7.68;3.53;;;6.90;99.90;;;;;;5057623;28;20093;-82
2023/12/15 02:43:40;;;;;;;9.90;4.40;;;6.90;99.90;;;;;;5067969;28;20457;-82
2023/12/15 02:46:06;;;;;;;9.18;4.07;;;6.90;99.90;;;;;;5066632;28;20123;-82
2023/12/15 02:48:33;;;;;;;9.23;3.50;;;6.90;99.90;;;;;;5069300;28;20036;-82
2023/12/15 02:50:59;;;;;;;9.93;4.57;;;6.90;99.90;;;;;;5064844;28;20047;-82
2023/12/15 02:53:25;;;;;;;10.50;3.50;;;7.00;99.90;;;;;;5060241;28;20040;-82
2023/12/15 02:55:51;;;;;;;7.63;2.75;;;7.00;99.90;;;;;;5065443;28;20044;-82
2023/12/15 02:58:17;;;;;;;9.38;4.55;;;7.00;99.90;;;;;;5061306;28;20045;-82
2023/12/15 03:00:43;;;;;;;10.18;3.67;;;7.00;99.90;;;;;;5061217;28;20037;-82
2023/12/15 03:03:09;;;;;;;6.50;2.90;;;7.00;99.90;;;;;;5046108;28;20032;-81
2023/12/15 03:05:35;;;;;;;10.52;3.90;;;7.00;99.90;;;;;;5055887;28;20040;-82
2023/12/15 03:08:01;;;;;;;9.20;3.92;;;7.00;99.90;;;;;;5048201;28;20036;-81
2023/12/15 03:10:27;;;;;;;8.50;4.03;;;7.00;99.90;;;;;;5066201;28;20077;-82
2023/12/15 03:12:52;;;;;;;10.43;3.85;;;7.10;99.90;;;;;;5066300;28;20040;-82
2023/12/15 03:15:18;;;;;;;14.02;3.88;;;7.10;99.90;;;;;;5064954;28;20047;-82
2023/12/15 03:17:44;;;;;;;8.40;2.67;;;7.10;99.90;;;;;;5062904;28;20129;-82
2023/12/15 03:20:10;;;;;;;9.60;3.20;;;7.10;99.90;;;;;;5065001;28;20516;-82
2023/12/15 03:22:37;;;;;;;10.23;3.83;;;7.10;99.90;;;;;;5067616;28;20089;-82
2023/12/15 03:25:05;;;;;;;7.32;3.72;;;7.10;99.90;;;;;;5048372;28;20105;-82
2023/12/15 03:27:31;;;;;;;10.60;4.32;;;7.10;99.90;;;;;;5046185;28;20040;-82
2023/12/15 03:29:56;;;;;;;12.98;4.43;;;7.10;99.90;;;;;;5066946;28;20059;-82
2023/12/15 03:32:22;;;;;;;9.93;3.40;;;7.10;99.90;;;;;;5063576;28;20517;-82
2023/12/15 03:34:48;;;;;;;9.80;4.03;;;7.10;99.90;;;;;;5066364;28;20116;-82
2023/12/15 03:37:14;;;;;;;16.27;4.47;;;7.20;99.90;;;;;;5050095;28;21593;-82
2023/12/15 03:39:39;;;;;;;7.50;3.97;;;7.10;99.90;;;;;;5058111;28;20036;-82
2023/12/15 03:42:07;;;;;;;10.00;3.72;;;7.10;99.90;;;;;;5061412;28;20041;-82
2023/12/15 03:44:39;;;;;;;10.30;4.20;;;7.20;99.90;;;;;;5064419;28;20036;-82
2023/12/15 03:47:08;;;;;;;10.20;3.97;;;7.20;99.90;;;;;;5043475;28;20291;-82
2023/12/15 03:49:35;;;;;;;8.40;3.20;;;7.20;99.90;;;;;;5044328;28;20044;-82
2023/12/15 03:52:01;;;;;;;8.45;2.90;;;7.20;99.90;;;;;;5065422;28;20040;-82
2023/12/15 03:54:26;;;;;;;9.98;3.97;;;7.10;99.90;;;;;;5048715;28;20387;-82
2023/12/15 03:56:56;;;;;;;10.02;3.65;;;7.10;99.90;;;;;;5045439;28;20040;-82
2023/12/15 03:59:22;;;;;;;9.52;3.45;;;7.20;99.90;;;;;;5051049;28;20044;-82
2023/12/15 04:01:48;;;;;;;10.82;4.15;;;7.20;99.90;;;;;;5047535;28;20049;-82
2023/12/15 04:04:13;;;;;;;9.88;4.07;;;7.20;99.90;;;;;;5051681;28;20059;-81
2023/12/15 04:06:39;;;;;;;9.77;3.80;;;7.20;99.90;;;;;;5066832;28;20040;-82
2023/12/15 04:09:05;;;;;;;6.20;2.47;;;7.20;99.90;;;;;;5052172;28;20093;-82
2023/12/15 04:11:30;;;;;;;8.88;2.97;;;7.20;99.90;;;;;;5062771;28;20071;-82
2023/12/15 04:13:56;;;;;;;9.73;3.25;;;7.20;99.90;;;;;;5068906;28;20067;-82
2023/12/15 04:16:22;;;;;;;6.93;3.28;;;7.20;99.90;;;;;;5086515;28;20037;-82
2023/12/15 04:18:48;;;;;;;10.23;4.53;;;7.20;99.90;;;;;;5064216;28;20044;-82
2023/12/15 04:21:13;;;;;;;7.90;3.40;;;7.20;99.90;;;;;;5050182;28;20037;-82
2023/12/15 04:23:39;;;;;;;8.65;2.97;;;7.20;99.90;;;;;;5063939;28;20118;-82
2023/12/15 04:26:05;;;;;;;10.68;3.40;;;7.20;99.90;;;;;;5044045;28;20072;-82
2023/12/15 04:28:30;;;;;;;11.60;4.03;;;7.20;99.90;;;;;;5046497;28;20075;-82
2023/12/15 04:31:15;;;;;;;7.93;3.33;;;7.20;99.90;;;;;;5063028;28;20482;-82
2023/12/15 04:33:40;;;;;;;10.55;4.90;;;7.10;99.90;;;;;;5063650;28;20068;-82
2023/12/15 04:36:10;;;;;;;5.53;3.03;;;7.30;99.90;;;;;;5063886;28;20091;-82
2023/12/15 04:38:36;;;;;;;9.30;3.78;;;7.20;99.90;;;;;;5047684;28;20036;-82
2023/12/15 04:41:02;;;;;;;10.32;3.20;;;7.20;99.90;;;;;;5061562;28;20426;-82
2023/12/15 04:43:28;;;;;;;8.55;4.47;;;7.10;99.90;;;;;;5050089;28;20067;-82
2023/12/15 04:45:55;;;;;;;6.95;3.90;;;7.20;99.90;;;;;;5069876;28;20032;-82
2023/12/15 04:48:21;;;;;;;5.13;2.60;;;7.20;99.90;;;;;;5053422;28;20071;-82
2023/12/15 04:50:47;;;;;;;10.98;3.38;;;7.10;99.90;;;;;;5064785;28;20047;-82
2023/12/15 04:53:13;;;;;;;7.50;3.45;;;7.20;99.90;;;;;;5049069;28;20690;-82
2023/12/15 04:55:39;;;;;;;9.95;3.47;;;7.10;99.90;;;;;;5065389;28;20036;-82
2023/12/15 04:58:05;;;;;;;10.18;2.70;;;7.10;99.90;;;;;;5046329;28;20056;-82
2023/12/15 05:00:31;;;;;;;8.63;3.08;;;7.10;99.90;;;;;;5046467;28;20049;-82
2023/12/15 05:02:57;;;;;;;6.38;2.92;;;7.10;99.90;;;;;;5042358;28;20037;-82
2023/12/15 05:05:22;;;;;;;6.38;2.80;;;7.10;99.90;;;;;;5049141;28;20044;-82
2023/12/15 05:07:48;;;;;;;7.28;2.80;;;7.10;99.90;;;;;;5045751;28;20041;-82
2023/12/15 05:10:14;;;;;;;6.72;3.20;;;7.10;99.90;;;;;;5045836;28;20036;-82
2023/12/15 05:12:39;;;;;;;7.18;3.55;;;7.10;99.90;;;;;;5044147;28;20071;-82
2023/12/15 05:15:06;;;;;;;13.18;2.97;;;7.10;99.90;;;;;;5047221;28;20492;-82
2023/12/15 05:17:31;;;;;;;14.20;2.58;;;7.10;99.90;;;;;;5045020;28;20032;-82
2023/12/15 05:19:57;;;;;;;8.82;3.00;;;7.10;99.90;;;;;;5048966;28;20189;-82
2023/12/15 05:22:23;;;;;;;8.68;3.45;;;7.10;99.90;;;;;;5056160;28;20491;-82
2023/12/15 05:24:51;;;;;;;7.47;3.78;;;7.10;99.90;;;;;;5048519;28;21481;-82
2023/12/15 05:27:17;;;;;;;13.80;3.75;;;7.10;99.90;;;;;;5063728;28;20097;-82
2023/12/15 05:29:45;;;;;;;10.77;3.63;;;7.10;99.90;;;;;;5046077;28;20460;-82
2023/12/15 05:32:14;;;;;;;7.63;2.90;;;7.00;99.90;;;;;;5062956;28;20494;-82
2023/12/15 05:34:41;;;;;;;7.80;3.42;;;7.10;99.90;;;;;;5045666;28;20398;-82
2023/12/15 05:37:06;;;;;;;8.07;3.70;;;7.10;99.90;;;;;;5047686;28;20044;-82
2023/12/15 05:39:32;;;;;;;7.25;3.05;;;7.10;99.90;;;;;;5046871;28;20040;-82
2023/12/15 05:41:58;;;;;;;9.95;3.88;;;7.10;99.90;;;;;;5047693;28;20058;-82
2023/12/15 05:44:23;;;;;;;7.57;2.78;;;7.10;99.90;;;;;;5047840;28;20421;-82
2023/12/15 05:46:49;;;;;;;8.60;2.70;;;7.10;99.90;;;;;;5060046;28;20028;-82
2023/12/15 05:49:15;;;;;;;7.95;3.15;;;7.10;99.90;;;;;;5044944;28;20028;-82
2023/12/15 05:51:48;;;;;;;7.00;3.15;;;7.10;99.90;;;;;;5064748;28;20068;-82
2023/12/15 05:54:14;;;;;;;6.75;2.95;;;7.10;99.90;;;;;;5048061;28;20062;-82
2023/12/15 05:56:40;;;;;;;8.85;3.33;;;7.10;99.90;;;;;;5045763;28;20037;-82
2023/12/15 05:59:05;;;;;;;5.70;2.65;;;7.00;99.90;;;;;;5063745;28;20326;-82
2023/12/15 06:01:31;;;;;;;8.20;2.88;;;7.00;99.90;;;;;;5045050;28;20040;-82
2023/12/15 06:03:57;;;;;;;7.20;3.17;;;7.00;99.90;;;;;;5043865;28;20040;-82
2023/12/15 06:06:23;;;;;;;9.20;3.55;;;7.00;99.90;;;;;;5047724;28;20043;-82
2023/12/15 06:08:48;;;;;;;8.95;3.95;;;7.00;99.90;;;;;;5062724;28;20420;-82
2023/12/15 06:11:14;;;;;;;7.22;3.00;;;7.00;99.90;;;;;;5059871;28;20756;-82
2023/12/15 06:13:41;;;;;;;6.28;2.70;;;6.90;99.90;;;;;;5045399;28;20521;-82
2023/12/15 06:16:07;;;;;;;6.93;3.67;;;6.90;99.90;;;;;;5039939;28;20255;-82
2023/12/15 06:18:33;;;;;;;5.90;2.42;;;6.90;99.90;;;;;;5046380;28;20045;-82
2023/12/15 06:20:59;;;;;;;8.98;3.65;;;6.90;99.90;;;;;;5045719;28;20145;-82
2023/12/15 06:23:25;;;;;;;10.25;3.35;;;6.90;99.90;;;;;;5045047;28;20550;-82
2023/12/15 06:25:50;;;;;;;6.93;3.05;;;6.90;99.90;;;;;;5063296;28;20432;-82
2023/12/15 06:28:16;;;;;;;7.95;3.03;;;6.90;99.90;;;;;;5043195;28;20060;-81
2023/12/15 06:30:42;;;;;;;10.95;4.18;;;6.90;99.90;;;;;;5060375;28;20032;-82
2023/12/15 06:33:08;;;;;;;7.20;2.60;;;6.90;99.90;;;;;;5061979;28;20040;-82
2023/12/15 06:35:33;;;;;;;10.43;4.03;;;6.90;99.90;;;;;;5051424;28;20036;-82
2023/12/15 06:38:00;;;;;;;5.65;2.70;;;6.90;99.90;;;;;;5063687;28;20200;-82
2023/12/15 06:40:25;;;;;;;8.02;3.67;;;6.80;99.90;;;;;;5060626;28;20040;-82
2023/12/15 06:42:51;;;;;;;6.03;2.55;;;6.90;99.90;;;;;;5067752;28;20060;-82
2023/12/15 06:45:16;;;;;;;7.68;2.53;;;7.00;99.90;;;;;;5052054;28;20142;-82
2023/12/15 06:47:42;;;;;;;8.55;2.88;;;6.90;99.90;;;;;;5049876;28;20806;-82
2023/12/15 06:50:08;;;;;;;7.70;2.38;;;6.90;99.90;;;;;;5065428;28;20044;-82
2023/12/15 06:52:36;;;;;;;7.50;2.95;;;6.90;99.90;;;;;;5044331;28;20040;-82
2023/12/15 06:55:03;;;;;;;7.85;2.78;;;6.90;99.90;;;;;;5046752;28;20037;-82
2023/12/15 06:57:29;;;;;;;4.68;1.92;;;6.90;99.90;;;;;;5041560;28;20033;-82
2023/12/15 06:59:55;;;;;;;7.18;3.42;;;6.90;99.90;;;;;;5061476;28;20048;-82
2023/12/15 07:02:21;;;;;;;8.48;2.65;;;6.90;99.90;;;;;;5059996;28;20063;-82
2023/12/15 07:04:46;;;;;;;8.80;2.40;;;7.00;99.90;;;;;;5047327;28;20478;-82
2023/12/15 07:07:12;;;;;;;8.48;2.70;;;6.90;99.90;;;;;;5060955;28;20524;-82
2023/12/15 07:09:37;;;;;;;6.28;2.90;;;7.00;99.90;;;;;;5051078;28;20082;-82
2023/12/15 07:12:04;;;;;;;8.63;3.78;;;7.00;99.90;;;;;;5047028;28;20040;-82
2023/12/15 07:14:29;;;;;;;7.03;2.83;;;7.00;99.90;;;;;;5060157;28;20500;-82
2023/12/15 07:16:55;;;;;;;8.38;2.72;;;7.00;99.90;;;;;;5069392;28;20425;-82
2023/12/15 07:19:21;;;;;;;6.40;2.75;;;7.00;99.90;;;;;;5062650;28;20037;-82
2023/12/15 07:21:46;;;;;;;5.32;2.08;;;7.00;99.90;;;;;;5061134;28;20070;-82
2023/12/15 07:24:12;;;;;;;7.13;2.53;;;7.00;99.90;;;;;;5045734;28;20040;-83
2023/12/15 07:26:38;;;;;;;10.48;2.97;;;7.00;99.90;;;;;;5044923;28;20040;-83
2023/12/15 07:29:05;;;;;;;8.95;2.75;;;7.00;99.90;;;;;;5062024;28;20043;-82
2023/12/15 07:31:30;;;;;;;7.95;3.05;;;7.00;99.90;;;;;;5046046;28;20029;-82
2023/12/15 07:33:56;;;;;;;5.63;2.60;;;7.00;99.90;;;;;;5060181;28;20062;-82
2023/12/15 07:36:22;;;;;;;10.52;3.90;;;6.90;99.90;;;;;;5044060;28;20041;-82
2023/12/15 07:38:48;;;;;;;5.68;2.45;;;6.90;99.90;;;;;;5039720;28;20055;-82
2023/12/15 07:41:15;;;;;;;8.50;2.92;;;6.90;99.90;;;;;;5044655;28;20524;-82
2023/12/15 07:43:40;;;;;;;9.38;1.90;;;6.90;99.90;;;;;;5043734;28;20412;-83
2023/12/15 07:46:19;;;;;;;10.60;2.40;;;6.90;99.90;;;;;;5060283;28;20040;-82
2023/12/15 07:48:44;;;;;;;10.13;3.05;;;6.90;99.90;;;;;;5059225;28;20343;-82
2023/12/15 07:51:18;;;;;;;8.02;2.42;;;6.90;99.90;;;;;;5062878;28;20486;-82
2023/12/15 07:53:44;;;;;;;6.75;2.30;;;6.90;99.90;;;;;;5064274;28;20031;-82
2023/12/15 07:56:22;;;;;;;5.90;2.53;;;6.90;99.90;;;;;;5064015;28;20036;-83
2023/12/15 07:58:49;;;;;;;8.27;2.55;;;6.90;99.90;;;;;;5062613;28;20040;-82
2023/12/15 08:01:16;;;;;;;6.88;2.67;;;6.90;99.90;;;;;;5047278;28;20036;-83
2023/12/15 08:03:42;;;;;;;11.32;2.75;;;6.90;99.90;;;;;;5063622;28;20047;-83
2023/12/15 08:06:08;;;;;;;9.07;3.33;;;6.90;99.90;;;;;;5047428;28;20045;-83
2023/12/15 08:08:34;;;;;;;8.43;3.22;;;6.90;99.90;;;;;;5062770;28;20508;-83
2023/12/15 08:10:59;;;;;;;6.25;2.53;;;6.90;99.90;;;;;;5045818;28;20037;-80
2023/12/15 08:13:25;;;;;;;6.85;2.58;;;6.90;99.90;;;;;;5061644;28;20070;-81
2023/12/15 08:15:50;;;;;;;8.05;1.85;;;6.90;99.90;;;;;;5049234;28;20509;-82
2023/12/15 08:18:16;;;;;;;5.78;2.53;;;6.90;99.90;;;;;;5064163;28;20048;-82
2023/12/15 08:20:42;;;;;;;10.07;2.70;;;6.90;99.90;;;;;;5045498;28;20534;-82
2023/12/15 08:23:07;;;;;;;3.50;1.80;;;6.90;99.90;;;;;;5062692;28;20138;-83
2023/12/15 08:25:33;;;;;;;4.57;2.25;;;6.90;99.90;;;;;;5049696;28;20025;-87
2023/12/15 08:28:02;;;;;;;6.07;3.03;;;6.90;99.90;;;;;;5063808;28;20068;-86
2023/12/15 08:30:28;;;;;;;9.57;2.88;;;6.90;99.90;;;;;;5057661;28;20397;-84
2023/12/15 08:32:53;;;;;;;5.15;1.83;;;6.90;99.90;;;;;;5048125;28;20029;-82
2023/12/15 08:35:19;;;;;;;6.35;2.92;;;6.90;99.90;;;;;;5043783;28;20033;-81
2023/12/15 08:37:44;;;;;;;6.05;2.25;;;7.00;99.90;;;;;;5059441;28;20139;-81
2023/12/15 08:40:10;;;;;;;6.90;2.30;;;7.00;99.90;;;;;;5055239;28;20123;-82
2023/12/15 08:42:36;;;;;;;7.15;2.00;;;6.90;99.90;;;;;;5047916;28;20032;-82
2023/12/15 08:45:02;;;;;;;6.40;2.30;;;6.90;99.90;;;;;;5064821;28;20028;-84
2023/12/15 08:47:28;;;;;;;6.60;2.60;;;7.00;99.90;;;;;;5047040;28;20123;-84
2023/12/15 08:49:53;;;;;;;5.40;2.75;;;7.00;99.90;;;;;;5045220;28;20041;-84
2023/12/15 08:52:19;;;;;;;7.32;3.00;;;6.90;99.90;;;;;;5060980;28;20051;-84
2023/12/15 08:54:45;;;;;;;6.20;2.10;;;7.00;99.90;;;;;;5048995;28;20037;-84
2023/12/15 08:57:12;;;;;;;6.00;2.63;;;7.00;99.90;;;;;;5048357;28;20032;-84
2023/12/15 08:59:38;;;;;;;6.93;2.33;;;7.00;99.90;;;;;;5062790;28;20059;-84
2023/12/15 09:02:06;;;;;;;5.15;2.95;;;7.00;99.90;;;;;;5061012;28;20040;-84
2023/12/15 09:04:32;;;;;;;6.18;1.85;;;7.10;99.90;;;;;;5051580;28;20062;-84
2023/12/15 09:06:58;;;;;;;6.53;2.35;;;7.10;99.90;;;;;;5047440;28;20190;-84
2023/12/15 09:09:24;;;;;;;8.20;1.98;;;7.10;99.90;;;;;;5046886;28;20060;-84
2023/12/15 09:11:50;;;;;;;5.63;2.42;;;7.10;99.90;;;;;;5042383;28;20047;-84
2023/12/15 09:14:16;;;;;;;9.45;1.98;;;7.10;99.90;;;;;;5043634;28;20028;-84
2023/12/15 09:16:43;;;;;;;4.53;1.92;;;7.10;99.90;;;;;;5045027;28;20045;-84
2023/12/15 09:19:08;;;;;;;6.88;2.20;;;7.20;99.90;;;;;;5042886;28;20045;-83
2023/12/15 09:21:35;;;;;;;5.88;1.80;;;7.20;99.90;;;;;;5060950;28;20052;-83
2023/12/15 09:24:01;;;;;;;8.60;2.35;;;7.20;99.90;;;;;;5054177;28;20032;-83
2023/12/15 09:26:27;;;;;;;7.22;1.95;;;7.30;99.90;;;;;;5057893;28;20040;-82
2023/12/15 09:28:53;;;;;;;5.72;2.22;;;7.30;99.90;;;;;;5061695;28;20029;-83
2023/12/15 09:31:19;;;;;;;6.03;1.98;;;7.30;99.90;;;;;;5060784;28;20513;-82
2023/12/15 09:33:45;;;;;;;3.03;1.45;;;7.40;99.90;;;;;;5042942;28;20036;-82
2023/12/15 09:36:11;;;;;;;4.90;1.13;;;7.40;99.90;;;;;;5044468;28;20056;-82
2023/12/15 09:38:36;;;;;;;3.45;1.20;;;7.40;99.90;;;;;;5042437;28;20540;-82
2023/12/15 09:41:02;;;;;;;4.95;1.80;;;7.50;99.90;;;;;;5061243;28;20041;-81
2023/12/15 09:43:28;;;;;;;4.30;2.03;;;7.50;99.90;;;;;;5059108;28;20055;-82
2023/12/15 09:45:57;;;;;;;5.00;1.15;;;7.50;99.90;;;;;;5039237;28;20402;-81
2023/12/15 09:48:23;;;;;;;3.60;1.83;;;7.60;99.90;;;;;;5056901;28;20119;-82
2023/12/15 09:50:55;;;;;;;3.28;1.30;;;7.60;99.90;;;;;;5045873;28;20482;-81
2023/12/15 09:53:22;;;;;;;4.43;1.60;;;7.60;99.90;;;;;;5060031;28;20461;-83
2023/12/15 09:55:50;;;;;;;2.28;1.05;;;7.60;99.90;;;;;;5044386;28;20045;-82
2023/12/15 09:58:17;;;;;;;3.40;0.80;;;7.60;99.90;;;;;;5056672;28;20111;-82
2023/12/15 10:00:42;;;;;;;9.15;2.35;;;7.60;99.90;;;;;;5039918;28;20551;-82
2023/12/15 10:03:08;;;;;;;5.75;0.98;;;7.60;99.90;;;;;;5059346;28;20140;-82
2023/12/15 10:05:34;;;;;;;1.48;0.88;;;7.60;99.90;;;;;;5044147;28;20116;-82
2023/12/15 10:08:00;;;;;;;5.63;1.75;;;7.70;99.90;;;;;;5042748;28;20086;-82
2023/12/15 10:10:26;;;;;;;4.05;1.30;;;7.60;99.90;;;;;;5066423;28;20033;-82
2023/12/15 10:12:56;;;;;;;6.35;1.27;;;7.70;99.90;;;;;;5041375;28;20085;-82
2023/12/15 10:15:22;;;;;;;4.68;1.77;;;7.70;99.90;;;;;;5045064;28;20178;-81
2023/12/15 10:17:49;;;;;;;4.72;1.42;;;7.70;99.90;;;;;;5040993;28;20589;-81
2023/12/15 10:20:15;;;;;;;4.30;1.23;;;7.80;99.90;;;;;;5038715;28;20090;-81
2023/12/15 10:22:41;;;;;;;2.08;0.73;;;7.80;99.90;;;;;;5057687;28;20090;-81
2023/12/15 10:25:22;;;;;;;5.05;1.23;;;7.80;99.90;;;;;;5040410;28;20036;-81
2023/12/15 10:27:49;;;;;;;4.75;0.85;;;7.80;99.90;;;;;;5039461;28;20044;-81
2023/12/15 10:30:18;;;;;;;3.20;1.30;;;7.90;99.90;;;;;;5058462;28;20044;-81
2023/12/15 10:32:44;;;;;;;11.02;1.70;;;7.90;99.90;;;;;;5061013;28;20036;-81
2023/12/15 10:35:10;;;;;;;4.95;1.95;;;7.90;99.90;;;;;;5058918;28;20055;-82
2023/12/15 10:37:37;;;;;;;3.80;1.40;;;8.00;99.90;;;;;;5058288;28;20058;-82
2023/12/15 10:40:04;;;;;;;3.42;1.05;;;8.00;99.90;;;;;;5059695;28;20045;-82
2023/12/15 10:42:30;;;;;;;1.67;0.77;;;8.00;99.90;;;;;;5045442;28;20623;-82
2023/12/15 10:44:58;;;;;;;5.68;1.05;;;8.00;99.90;;;;;;5060949;28;20040;-82
2023/12/15 10:47:24;;;;;;;2.85;1.42;;;8.00;99.90;;;;;;5038127;28;21469;-82
2023/12/15 10:49:52;;;;;;;8.55;1.60;;;8.00;99.90;;;;;;5041914;28;20036;-82
2023/12/15 10:52:21;;;;;;;3.47;0.93;;;8.00;99.90;;;;;;5058634;28;20371;-82
2023/12/15 10:54:52;;;;;;;4.10;1.05;;;8.00;99.90;;;;;;5058414;28;20406;-82
2023/12/15 10:57:19;;;;;;;4.15;1.13;;;8.00;99.90;;;;;;5043577;28;20052;-82
2023/12/15 10:59:45;;;;;;;3.83;1.67;;;8.10;99.90;;;;;;5038895;28;20862;-81
2023/12/15 11:02:17;;;;;;;1.90;0.98;;;8.00;99.90;;;;;;5054622;28;20048;-80
2023/12/15 11:04:43;;;;;;;1.88;0.90;;;8.10;99.90;;;;;;5060041;28;20086;-82
2023/12/15 11:07:11;;;;;;;6.18;1.65;;;8.10;99.90;;;;;;5043355;28;20049;-82
2023/12/15 11:09:37;;;;;;;2.20;1.10;;;8.10;99.90;;;;;;5062102;28;20032;-82
2023/12/15 11:12:22;;;;;;;3.35;0.93;;;8.20;99.90;;;;;;5055878;28;20039;-82
2023/12/15 11:15:08;;;;;;;1.80;0.80;;;8.10;99.90;;;;;;5057375;28;20076;-82
2023/12/15 11:17:38;;;;;;;2.53;0.98;;;8.20;99.90;;;;;;5056332;28;20506;-82
2023/12/15 11:20:26;;;;;;;4.15;0.80;;;8.10;99.90;;;;;;5065522;28;20082;-82
2023/12/15 11:22:53;;;;;;;2.22;1.15;;;8.20;99.90;;;;;;5041261;28;20084;-82
2023/12/15 11:25:21;;;;;;;2.97;0.90;;;8.20;99.90;;;;;;5067821;28;20052;-82
2023/12/15 11:28:08;;;;;;;3.92;1.38;;;8.20;99.90;;;;;;5057695;28;20040;-82
2023/12/15 11:30:36;;;;;;;7.93;1.45;;;8.20;99.90;;;;;;5068124;28;20405;-82
2023/12/15 11:33:28;;;;;;;3.58;1.00;;;8.20;99.90;;;;;;5065277;28;20040;-82
2023/12/15 11:35:58;;;;;;;3.28;1.52;;;8.30;99.90;;;;;;5047944;28;20036;-82
2023/12/15 11:38:23;;;;;;;5.43;0.90;;;8.30;99.90;;;;;;5048509;28;20117;-83
2023/12/15 11:40:50;;;;;;;1.50;0.57;;;8.30;99.90;;;;;;5060594;28;20498;-82
2023/12/15 11:43:17;;;;;;;3.00;0.65;;;8.30;99.90;;;;;;5041488;28;20407;-82
2023/12/15 11:45:43;;;;;;;1.90;1.02;;;8.30;99.90;;;;;;5075829;28;20032;-82
2023/12/15 11:48:09;;;;;;;5.25;0.80;;;8.40;99.90;;;;;;5065807;28;20483;-82
2023/12/15 11:50:38;;;;;;;4.18;0.88;;;8.40;99.90;;;;;;5066182;28;20513;-82
2023/12/15 11:53:07;;;;;;;2.80;0.98;;;8.40;99.90;;;;;;5063882;28;20047;-82
2023/12/15 11:55:32;;;;;;;5.15;1.15;;;8.40;99.90;;;;;;5066505;28;20169;-82
2023/12/15 11:57:59;;;;;;;10.75;1.77;;;8.40;99.90;;;;;;5062142;28;20512;-82
2023/12/15 12:00:26;;;;;;;3.42;0.68;;;8.40;99.90;;;;;;5049064;28;20078;-82
2023/12/15 12:02:52;;;;;;;2.20;0.60;;;8.40;99.90;;;;;;5048298;28;20051;-82
2023/12/15 12:05:18;;;;;;;1.90;0.75;;;8.30;99.90;;;;;;5049249;28;20052;-82
2023/12/15 12:07:44;;;;;;;3.47;0.73;;;8.40;99.90;;;;;;5047101;28;20040;-82
2023/12/15 12:10:10;;;;;;;2.67;1.05;;;8.40;99.90;;;;;;5063667;28;20486;-85
2023/12/15 12:12:37;;;;;;;17.15;5.90;;;8.50;99.90;;;;;;5045929;28;20039;-82
2023/12/15 12:15:07;;;;;;;5.47;2.70;;;8.50;99.90;;;;;;5044739;28;20040;-82
2023/12/15 12:17:38;;;;;;;6.63;1.10;;;8.50;99.90;;;;;;5044312;28;20037;-82
2023/12/15 12:20:10;;;;;;;6.65;1.35;;;8.50;99.90;;;;;;5046802;28;20068;-83
2023/12/15 12:22:40;;;;;;;2.90;1.35;;;8.60;99.90;;;;;;5062308;28;20044;-82
2023/12/15 12:25:06;;;;;;;3.53;1.15;;;8.60;99.90;;;;;;5060604;28;20044;-82
2023/12/15 12:27:33;;;;;;;7.28;1.75;;;8.60;99.90;;;;;;5056815;28;20746;-82
2023/12/15 12:30:18;;;;;;;2.88;0.98;;;8.60;99.90;;;;;;5062692;28;20037;-83
2023/12/15 12:32:44;;;;;;;2.97;1.15;;;8.60;99.90;;;;;;5045511;28;20079;-83
2023/12/15 12:35:10;;;;;;;3.13;1.40;;;8.60;99.90;;;;;;5059675;28;20068;-82
2023/12/15 12:37:37;;;;;;;13.32;3.22;;;8.50;99.90;;;;;;5048953;28;20059;-83
2023/12/15 12:40:04;;;;;;;6.88;1.48;;;8.50;99.90;;;;;;5058006;28;20086;-83
2023/12/15 12:42:30;;;;;;;3.38;1.67;;;8.50;99.90;;;;;;5047264;28;20538;-82
2023/12/15 12:44:56;;;;;;;4.03;1.90;;;8.60;99.90;;;;;;5060018;28;20052;-83
2023/12/15 12:47:23;;;;;;;6.80;1.92;;;8.50;99.90;;;;;;5062443;28;20457;-80
2023/12/15 12:49:49;;;;;;;3.92;2.17;;;8.50;99.90;;;;;;5046194;28;20040;-86
2023/12/15 12:52:16;;;;;;;3.97;2.08;;;8.40;99.90;;;;;;5045507;28;20563;-82